Time;durP1;ratioP1;P1;durP2;ratioP2;P2;SDS_P1;SDS_P2;PMS_P1;PMS_P2;Temp;Humidity;BMP_temperature;BMP_pressure;BME280_temperature;BME280_humidity;BME280_pressure;Samples;Min_cycle;Max_cycle;Signal;HPM_P1;HPM_P2
2023/04/16 00:01:31;;;;;;;7.80;2.90;;;;;;;9.75;84.40;102085.84;5014029;28;20105;-67
2023/04/16 00:03:57;;;;;;;11.75;3.42;;;;;;;9.72;84.56;102077.81;5014223;28;20044;-67
2023/04/16 00:06:22;;;;;;;11.00;3.05;;;;;;;9.62;84.94;102079.25;5013484;28;20026;-67
2023/04/16 00:08:48;;;;;;;10.80;3.30;;;;;;;9.63;84.97;102078.41;5013174;28;20076;-66
2023/04/16 00:11:14;;;;;;;10.40;3.05;;;;;;;9.67;84.79;102077.66;5012705;28;20523;-66
2023/04/16 00:13:40;;;;;;;7.95;3.22;;;;;;;9.68;84.65;102082.13;5012577;28;20034;-66
2023/04/16 00:16:06;;;;;;;8.18;2.95;;;;;;;9.75;85.12;102085.84;5012999;28;20034;-66
2023/04/16 00:18:31;;;;;;;12.18;3.45;;;;;;;9.77;84.61;102078.91;5012850;28;20403;-66
2023/04/16 00:20:56;;;;;;;10.85;3.15;;;;;;;9.83;84.44;102080.84;5012626;28;20026;-66
2023/04/16 00:23:24;;;;;;;10.07;3.63;;;;;;;9.82;84.49;102085.22;5012783;28;20026;-67
2023/04/16 00:25:49;;;;;;;13.85;3.67;;;;;;;9.80;84.56;102078.97;5012799;28;20053;-67
2023/04/16 00:28:15;;;;;;;11.73;3.20;;;;;;;9.76;84.99;102078.00;5012710;28;20484;-67
2023/04/16 00:30:40;;;;;;;7.05;2.92;;;;;;;9.77;85.00;102084.19;5012561;28;20426;-66
2023/04/16 00:33:05;;;;;;;11.05;3.30;;;;;;;9.73;85.40;102080.53;4995393;28;20080;-67
2023/04/16 00:35:31;;;;;;;10.55;3.40;;;;;;;9.72;85.17;102086.66;5012539;28;20034;-66
2023/04/16 00:37:56;;;;;;;10.05;3.50;;;;;;;9.73;85.53;102079.66;5012648;28;20109;-67
2023/04/16 00:40:22;;;;;;;9.48;3.45;;;;;;;9.68;85.94;102078.59;5012329;28;20060;-67
2023/04/16 00:42:47;;;;;;;10.02;3.47;;;;;;;9.63;86.33;102080.16;5012551;28;20048;-67
2023/04/16 00:45:12;;;;;;;8.55;3.15;;;;;;;9.59;86.71;102081.78;5012415;28;20113;-67
2023/04/16 00:47:38;;;;;;;13.43;3.92;;;;;;;9.52;87.69;102075.41;4965822;28;20038;-67
2023/04/16 00:50:04;;;;;;;12.20;3.70;;;;;;;9.42;88.17;102078.59;5016160;28;20026;-67
2023/04/16 00:52:31;;;;;;;11.10;3.55;;;;;;;9.40;88.50;102082.00;4998637;28;20026;-66
2023/04/16 00:54:58;;;;;;;8.38;3.40;;;;;;;9.43;88.62;102076.84;5016177;28;20034;-67
2023/04/16 00:57:23;;;;;;;12.27;3.75;;;;;;;9.48;88.59;102083.19;4998621;28;20434;-67
2023/04/16 00:59:49;;;;;;;12.57;3.80;;;;;;;9.51;88.63;102072.75;5015935;28;20022;-66
2023/04/16 01:02:15;;;;;;;13.20;3.97;;;;;;;9.53;88.48;102076.31;5016112;28;20398;-67
2023/04/16 01:04:41;;;;;;;13.23;3.90;;;;;;;9.56;88.54;102075.53;4998215;28;20527;-67
2023/04/16 01:07:06;;;;;;;11.52;4.10;;;;;;;9.57;88.63;102069.41;5015744;28;20053;-67
2023/04/16 01:09:31;;;;;;;13.45;4.18;;;;;;;9.57;88.69;102079.97;5015721;28;20105;-66
2023/04/16 01:11:57;;;;;;;12.65;4.32;;;;;;;9.53;89.02;102073.69;5015449;28;20133;-66
2023/04/16 01:14:22;;;;;;;19.70;4.57;;;;;;;9.54;88.85;102071.06;4997907;28;20025;-66
2023/04/16 01:16:48;;;;;;;14.93;4.40;;;;;;;9.57;89.06;102075.56;5015638;28;20034;-66
2023/04/16 01:19:13;;;;;;;15.07;4.57;;;;;;;9.57;89.16;102069.41;5015398;28;20022;-66
2023/04/16 01:21:38;;;;;;;13.23;4.65;;;;;;;9.57;89.30;102074.69;5015191;28;20033;-67
2023/04/16 01:24:04;;;;;;;8.25;4.00;;;;;;;9.63;89.30;102069.59;5015706;28;20041;-67
2023/04/16 01:26:30;;;;;;;12.00;4.50;;;;;;;9.62;89.52;102070.47;4998075;28;20509;-66
2023/04/16 01:28:55;;;;;;;16.42;4.60;;;;;;;9.62;89.63;102071.34;5015415;28;20026;-66
2023/04/16 01:31:21;;;;;;;10.10;4.18;;;;;;;9.63;89.78;102075.78;5015316;28;20087;-66
2023/04/16 01:33:46;;;;;;;9.60;4.43;;;;;;;9.66;89.25;102075.00;5015183;28;20395;-66
2023/04/16 01:36:12;;;;;;;12.13;4.22;;;;;;;9.62;89.59;102068.72;4997670;28;20498;-66
2023/04/16 01:38:37;;;;;;;12.88;4.55;;;;;;;9.65;89.68;102075.84;5015240;28;20061;-67
2023/04/16 01:41:02;;;;;;;13.10;4.30;;;;;;;9.62;89.89;102075.72;5015132;28;20483;-67
2023/04/16 01:43:28;;;;;;;10.43;3.95;;;;;;;9.58;90.54;102074.72;5015030;28;20498;-67
2023/04/16 01:46:09;;;;;;;10.80;4.30;;;;;;;9.57;91.30;102083.50;5014744;28;20030;-67
2023/04/16 01:48:34;;;;;;;8.55;4.28;;;;;;;9.49;91.15;102079.69;5014902;28;20471;-68
2023/04/16 01:51:00;;;;;;;10.90;4.13;;;;;;;9.54;91.29;102072.81;5014840;28;20037;-67
2023/04/16 01:53:25;;;;;;;11.27;3.65;;;;;;;9.56;91.25;102084.34;5015165;28;20033;-67
2023/04/16 01:55:50;;;;;;;10.35;3.97;;;;;;;9.57;91.63;102083.50;5014714;28;20453;-64
2023/04/16 01:58:16;;;;;;;8.02;4.00;;;;;;;9.58;91.30;102084.38;5013907;28;20103;-65
2023/04/16 02:00:41;;;;;;;10.52;4.20;;;;;;;9.59;91.36;102083.53;5014776;28;20026;-65
2023/04/16 02:03:06;;;;;;;9.77;3.88;;;;;;;9.52;91.62;102083.34;5014697;28;20026;-66
2023/04/16 02:05:32;;;;;;;9.48;4.20;;;;;;;9.52;91.72;102075.41;5014678;28;20145;-66
2023/04/16 02:07:57;;;;;;;12.20;3.92;;;;;;;9.55;91.87;102087.84;5014772;28;20391;-66
2023/04/16 02:10:23;;;;;;;10.90;3.95;;;;;;;9.51;92.35;102081.56;4997687;28;20103;-67
2023/04/16 02:12:48;;;;;;;12.35;3.70;;;;;;;9.56;92.24;102084.34;5015381;28;20034;-67
2023/04/16 02:15:15;;;;;;;13.65;4.28;;;;;;;9.53;92.43;102078.94;5015181;28;20045;-66
2023/04/16 02:17:40;;;;;;;10.05;3.60;;;;;;;9.59;92.74;102070.34;4997068;28;20037;-66
2023/04/16 02:20:08;;;;;;;10.68;4.00;;;;;;;9.53;92.71;102068.41;5014620;28;20041;-66
2023/04/16 02:22:33;;;;;;;10.00;3.60;;;;;;;9.57;92.74;102078.22;5014101;28;20113;-66
2023/04/16 02:24:59;;;;;;;9.93;3.80;;;;;;;9.51;92.72;102073.63;5015248;28;20112;-66
2023/04/16 02:27:24;;;;;;;8.32;3.60;;;;;;;9.54;92.66;102076.34;5014676;28;20049;-66
2023/04/16 02:29:50;;;;;;;9.20;3.75;;;;;;;9.58;92.82;102076.47;5014262;28;20097;-66
2023/04/16 02:32:15;;;;;;;10.75;3.72;;;;;;;9.50;93.23;102082.38;5014094;28;20041;-66
2023/04/16 02:34:41;;;;;;;8.10;3.78;;;;;;;9.47;93.58;102079.66;5014072;28;20026;-66
2023/04/16 02:37:07;;;;;;;9.63;4.03;;;;;;;9.42;94.02;102072.38;5014245;28;20030;-66
2023/04/16 02:39:32;;;;;;;11.02;3.55;;;;;;;9.42;94.08;102072.38;5014310;28;20022;-66
2023/04/16 02:41:59;;;;;;;7.85;3.17;;;;;;;9.43;94.50;102069.81;5013942;28;20435;-66
2023/04/16 02:44:25;;;;;;;10.35;3.70;;;;;;;9.39;94.12;102070.56;5013844;28;20364;-66
2023/04/16 02:46:50;;;;;;;12.00;3.95;;;;;;;9.46;93.96;102083.13;5014049;28;20033;-66
2023/04/16 02:49:15;;;;;;;12.40;4.22;;;;;;;9.49;93.95;102083.22;5013882;28;20030;-65
2023/04/16 02:51:41;;;;;;;10.98;3.88;;;;;;;9.48;94.18;102083.19;5013980;28;20026;-66
2023/04/16 02:54:06;;;;;;;8.40;3.67;;;;;;;9.47;94.09;102084.03;5013814;28;20105;-66
2023/04/16 02:56:32;;;;;;;8.45;4.03;;;;;;;9.48;93.95;102085.81;5013722;28;20034;-65
2023/04/16 02:58:57;;;;;;;10.93;3.90;;;;;;;9.44;94.23;102086.56;5013689;28;20026;-65
2023/04/16 03:01:22;;;;;;;9.88;4.03;;;;;;;9.40;94.76;102092.56;5013780;28;20025;-66
2023/04/16 03:03:48;;;;;;;9.65;3.75;;;;;;;9.40;95.07;102096.09;5013614;28;20025;-66
2023/04/16 03:06:13;;;;;;;7.95;3.83;;;;;;;9.43;95.24;102100.59;5013389;28;20036;-65
2023/04/16 03:08:39;;;;;;;12.32;4.18;;;;;;;9.39;95.17;102090.78;5013439;28;20057;-66
2023/04/16 03:11:04;;;;;;;9.70;4.03;;;;;;;9.37;95.50;102095.06;5013444;28;20085;-66
2023/04/16 03:13:29;;;;;;;10.73;4.22;;;;;;;9.35;95.80;102102.06;5013161;28;20025;-65
2023/04/16 03:15:55;;;;;;;10.20;4.13;;;;;;;9.33;95.80;102104.63;4995619;28;20384;-66
2023/04/16 03:18:20;;;;;;;10.73;4.32;;;;;;;9.32;96.04;102100.19;4995723;28;20022;-66
2023/04/16 03:20:51;;;;;;;8.30;4.18;;;;;;;9.36;96.08;102109.13;5013400;28;20080;-66
2023/04/16 03:23:16;;;;;;;13.20;4.85;;;;;;;9.38;96.19;102110.97;4995852;28;20049;-66
2023/04/16 03:25:45;;;;;;;14.52;4.68;;;;;;;9.41;95.63;102104.91;5013303;28;20061;-66
2023/04/16 03:28:10;;;;;;;11.93;4.80;;;;;;;9.39;95.77;102104.84;5013268;28;20109;-66
2023/04/16 03:30:36;;;;;;;12.82;5.95;;;;;;;9.32;96.07;102107.22;5013396;28;20105;-66
2023/04/16 03:33:02;;;;;;;11.40;5.03;;;;;;;9.29;96.23;102113.25;5013275;28;20483;-65
2023/04/16 03:35:27;;;;;;;13.45;5.35;;;;;;;9.23;97.25;102107.78;4995656;28;20033;-65
2023/04/16 03:37:53;;;;;;;14.18;5.30;;;;;;;9.27;97.02;102107.06;5013160;28;20026;-66
2023/04/16 03:40:18;;;;;;;9.65;4.97;;;;;;;9.37;96.78;102108.28;5013413;28;20050;-66
2023/04/16 03:42:43;;;;;;;11.60;5.75;;;;;;;9.35;96.53;102116.13;5012919;28;20030;-65
2023/04/16 03:45:09;;;;;;;12.70;6.20;;;;;;;9.31;96.48;102111.59;5013233;28;20113;-66
2023/04/16 03:47:34;;;;;;;12.48;6.40;;;;;;;9.28;96.98;102103.56;5013063;28;20514;-65
2023/04/16 03:50:00;;;;;;;13.30;6.60;;;;;;;9.28;96.79;102106.19;5013244;28;20502;-66
2023/04/16 03:52:26;;;;;;;10.88;5.55;;;;;;;9.30;97.03;102107.16;5013162;28;20488;-66
2023/04/16 03:54:52;;;;;;;11.77;6.18;;;;;;;9.28;97.01;102115.00;5012837;28;20030;-65
2023/04/16 03:57:17;;;;;;;14.45;6.45;;;;;;;9.30;96.66;102107.16;5012964;28;20034;-64
2023/04/16 03:59:43;;;;;;;12.35;6.47;;;;;;;9.25;96.59;102109.63;5013114;28;20114;-65
2023/04/16 04:02:08;;;;;;;13.02;6.40;;;;;;;9.30;97.41;102111.56;5013084;28;20057;-66
2023/04/16 04:04:33;;;;;;;13.30;6.50;;;;;;;9.28;97.14;102114.13;5012897;28;20096;-66
2023/04/16 04:06:59;;;;;;;12.48;6.75;;;;;;;9.25;96.75;102116.66;5012735;28;20026;-65
2023/04/16 04:09:25;;;;;;;11.70;6.45;;;;;;;9.22;96.77;102108.63;5012930;28;20054;-65
2023/04/16 04:11:50;;;;;;;10.23;6.65;;;;;;;9.16;97.38;102113.66;5012560;28;20050;-65
2023/04/16 04:14:15;;;;;;;17.27;7.25;;;;;;;9.09;97.79;102104.63;5012743;28;20041;-65
2023/04/16 04:16:41;;;;;;;13.48;7.07;;;;;;;9.07;97.65;102114.22;5012888;28;20037;-65
2023/04/16 04:19:06;;;;;;;14.80;7.03;;;;;;;9.15;98.06;102106.59;5012762;28;20026;-65
2023/04/16 04:21:32;;;;;;;10.88;6.88;;;;;;;9.18;97.87;102118.16;5014437;28;20030;-65
2023/04/16 04:23:57;;;;;;;13.80;7.13;;;;;;;9.16;97.73;102111.03;5016641;28;20395;-65
2023/04/16 04:26:22;;;;;;;14.48;7.30;;;;;;;9.19;97.44;102117.31;5016691;28;20105;-65
2023/04/16 04:28:48;;;;;;;16.40;7.15;;;;;;;9.27;97.60;102113.22;5016542;28;20395;-66
2023/04/16 04:31:13;;;;;;;14.88;7.43;;;;;;;9.24;97.43;102121.00;4998906;28;20037;-65
2023/04/16 04:33:39;;;;;;;14.43;7.05;;;;;;;9.24;97.16;102120.13;5016330;28;20475;-65
2023/04/16 04:36:05;;;;;;;13.05;6.70;;;;;;;9.26;97.36;102121.09;5015842;28;20033;-65
2023/04/16 04:38:30;;;;;;;12.13;6.82;;;;;;;9.22;97.13;102120.06;5016657;28;20030;-65
2023/04/16 04:40:56;;;;;;;13.70;6.93;;;;;;;9.22;96.82;102127.97;5016142;28;20030;-65
2023/04/16 04:43:22;;;;;;;11.80;7.18;;;;;;;9.24;97.42;102130.66;5016244;28;20058;-65
2023/04/16 04:45:48;;;;;;;16.73;7.03;;;;;;;9.23;97.06;102131.50;5016264;28;20026;-66
2023/04/16 04:48:13;;;;;;;11.93;6.30;;;;;;;9.30;97.34;102130.91;5016481;28;20113;-64
2023/04/16 04:50:39;;;;;;;12.23;6.40;;;;;;;9.34;96.58;102134.56;5016124;28;20511;-65
2023/04/16 04:53:08;;;;;;;12.75;6.53;;;;;;;9.35;96.17;102133.72;4998399;28;20037;-65
2023/04/16 04:55:36;;;;;;;16.10;6.70;;;;;;;9.35;96.45;102134.59;5015692;28;20475;-65
2023/04/16 04:58:03;;;;;;;12.90;6.68;;;;;;;9.36;96.96;102138.13;4998736;28;20091;-65
2023/04/16 05:00:28;;;;;;;13.50;6.15;;;;;;;9.35;96.54;102139.88;5015917;28;20030;-65
2023/04/16 05:02:54;;;;;;;14.27;6.70;;;;;;;9.34;96.72;102135.44;5015850;28;20041;-65
2023/04/16 05:05:19;;;;;;;12.88;6.53;;;;;;;9.37;96.80;102145.19;5015855;28;20034;-66
2023/04/16 05:07:45;;;;;;;19.02;7.20;;;;;;;9.31;96.67;102137.06;5015600;28;20037;-65
2023/04/16 05:10:10;;;;;;;14.93;6.88;;;;;;;9.30;97.13;102138.81;5015650;28;20160;-65
2023/04/16 05:12:35;;;;;;;18.05;7.10;;;;;;;9.31;97.15;102142.34;5015259;28;20408;-65
2023/04/16 05:15:01;;;;;;;15.52;6.45;;;;;;;9.34;97.10;102140.72;5016233;28;20128;-65
2023/04/16 05:17:26;;;;;;;16.63;7.20;;;;;;;9.33;97.25;102140.66;4999158;28;20018;-65
2023/04/16 05:19:51;;;;;;;13.00;6.50;;;;;;;9.34;97.30;102145.13;5016199;28;20380;-65
2023/04/16 05:22:17;;;;;;;15.73;6.80;;;;;;;9.35;97.28;102146.91;4997922;28;20033;-64
2023/04/16 05:24:43;;;;;;;14.30;6.50;;;;;;;9.37;97.40;102139.94;5015296;28;20040;-65
2023/04/16 05:27:08;;;;;;;16.35;7.47;;;;;;;9.40;97.08;102155.88;5015625;28;20030;-64
2023/04/16 05:29:34;;;;;;;13.95;6.65;;;;;;;9.34;97.14;102156.56;5015578;28;20049;-64
2023/04/16 05:32:00;;;;;;;14.77;6.75;;;;;;;9.41;97.10;102158.56;5014704;28;20021;-65
2023/04/16 05:34:26;;;;;;;11.27;6.28;;;;;;;9.45;97.16;102157.81;5014715;28;20363;-65
2023/04/16 05:36:51;;;;;;;15.23;7.65;;;;;;;9.45;97.05;102149.00;5015279;28;20030;-66
2023/04/16 05:39:17;;;;;;;12.68;7.05;;;;;;;9.39;97.25;102162.00;5015034;28;20034;-66
2023/04/16 05:41:42;;;;;;;15.75;7.38;;;;;;;9.32;97.80;102159.97;5015108;28;20514;-65
2023/04/16 05:44:08;;;;;;;15.18;7.35;;;;;;;9.22;98.65;102167.53;5014874;28;20038;-64
2023/04/16 05:46:33;;;;;;;15.63;7.13;;;;;;;9.22;98.69;102177.19;5015100;28;20030;-65
2023/04/16 05:48:59;;;;;;;13.68;6.90;;;;;;;9.18;99.67;102176.19;5014947;28;20480;-65
2023/04/16 05:51:26;;;;;;;16.05;7.80;;;;;;;9.19;99.47;102172.69;5014923;28;20037;-66
2023/04/16 05:53:51;;;;;;;17.65;8.45;;;;;;;9.20;99.56;102182.41;4997366;28;20488;-66
2023/04/16 05:56:16;;;;;;;17.10;7.95;;;;;;;9.22;99.13;102183.38;5014689;28;20145;-66
2023/04/16 05:58:42;;;;;;;15.20;7.68;;;;;;;9.22;99.51;102182.47;5014732;28;20026;-66
2023/04/16 06:01:07;;;;;;;17.58;7.50;;;;;;;9.32;99.41;102178.44;5014698;28;20105;-65
2023/04/16 06:03:32;;;;;;;20.13;7.85;;;;;;;9.33;98.97;102180.22;5014653;28;20076;-66
2023/04/16 06:05:58;;;;;;;17.77;7.78;;;;;;;9.35;98.90;102183.84;5014630;28;20391;-66
2023/04/16 06:08:23;;;;;;;16.65;8.70;;;;;;;9.34;98.93;102180.28;5014510;28;20123;-66
2023/04/16 06:10:49;;;;;;;17.88;9.13;;;;;;;9.33;99.07;102188.13;4996982;28;20061;-66
2023/04/16 06:13:14;;;;;;;20.33;8.63;;;;;;;9.34;98.87;102182.03;5014434;28;20029;-65
2023/04/16 06:15:39;;;;;;;18.35;8.45;;;;;;;9.34;99.22;102185.56;5014440;28;20038;-65
2023/04/16 06:18:05;;;;;;;19.25;8.45;;;;;;;9.30;99.56;102182.78;4996932;28;20517;-65
2023/04/16 06:20:30;;;;;;;18.00;8.45;;;;;;;9.30;99.67;102182.78;4996747;28;20026;-65
2023/04/16 06:22:56;;;;;;;16.13;8.43;;;;;;;9.35;99.87;102186.47;5014296;28;20434;-66
2023/04/16 06:25:21;;;;;;;20.00;8.90;;;;;;;9.36;99.32;102182.97;5013691;28;20037;-66
2023/04/16 06:27:47;;;;;;;18.90;8.45;;;;;;;9.41;99.48;102184.94;5014238;28;20036;-66
2023/04/16 06:30:14;;;;;;;19.23;9.18;;;;;;;9.41;99.35;102189.31;5014400;28;20030;-66
2023/04/16 06:32:39;;;;;;;19.95;8.52;;;;;;;9.45;99.87;102192.13;5014125;28;20076;-66
2023/04/16 06:35:05;;;;;;;18.55;8.43;;;;;;;9.47;99.17;102201.00;5013999;28;20033;-66
2023/04/16 06:37:30;;;;;;;21.15;8.27;;;;;;;9.53;99.40;102197.69;5014013;28;20065;-66
2023/04/16 06:39:56;;;;;;;18.90;8.38;;;;;;;9.52;99.27;102206.47;5014057;28;20109;-66
2023/04/16 06:42:22;;;;;;;21.10;8.98;;;;;;;9.53;98.92;102201.22;5013929;28;20022;-66
2023/04/16 06:44:47;;;;;;;20.45;8.80;;;;;;;9.57;99.46;102214.53;5013734;28;20026;-66
2023/04/16 06:47:13;;;;;;;23.25;9.02;;;;;;;9.57;99.10;102211.91;5013968;28;20399;-66
2023/04/16 06:49:38;;;;;;;17.67;8.10;;;;;;;9.64;99.04;102211.28;5013876;28;20037;-66
2023/04/16 06:52:04;;;;;;;23.33;8.95;;;;;;;9.69;98.89;102215.88;5014319;28;20026;-66
2023/04/16 06:54:30;;;;;;;18.70;8.32;;;;;;;9.68;98.68;102214.09;5014910;28;20036;-66
2023/04/16 06:56:55;;;;;;;18.88;9.02;;;;;;;9.68;98.72;102223.75;5014408;28;20487;-66
2023/04/16 06:59:21;;;;;;;21.90;8.77;;;;;;;9.66;98.71;102228.97;4996189;28;20040;-66
2023/04/16 07:01:46;;;;;;;21.33;9.50;;;;;;;9.61;98.76;102225.25;5013761;28;20475;-66
2023/04/16 07:04:12;;;;;;;22.20;8.82;;;;;;;9.63;99.26;102228.84;4996119;28;20495;-66
2023/04/16 07:06:37;;;;;;;21.05;9.40;;;;;;;9.60;99.17;102233.13;5013573;28;20026;-66
2023/04/16 07:09:02;;;;;;;22.73;10.15;;;;;;;9.59;99.93;102241.88;5013371;28;20097;-66
2023/04/16 07:11:28;;;;;;;22.27;9.65;;;;;;;9.56;99.98;102237.41;5013340;28;20056;-66
2023/04/16 07:13:54;;;;;;;24.98;9.98;;;;;;;9.57;99.98;102235.66;5013551;28;20077;-65
2023/04/16 07:16:19;;;;;;;23.40;9.60;;;;;;;9.60;100.00;102241.06;5013619;28;20084;-66
2023/04/16 07:18:45;;;;;;;21.73;10.73;;;;;;;9.60;99.90;102241.94;5013434;28;20040;-65
2023/04/16 07:21:10;;;;;;;25.95;10.25;;;;;;;9.65;100.00;102244.75;5013180;28;20041;-65
2023/04/16 07:23:36;;;;;;;25.88;10.68;;;;;;;9.63;99.94;102243.78;5013192;28;20026;-66
2023/04/16 07:26:01;;;;;;;24.60;10.38;;;;;;;9.67;99.81;102249.22;4995850;28;20479;-65
2023/04/16 07:28:26;;;;;;;22.30;9.80;;;;;;;9.69;99.62;102258.13;5013088;28;20026;-66
2023/04/16 07:30:52;;;;;;;22.02;10.48;;;;;;;9.68;99.41;102252.78;4995590;28;20454;-66
2023/04/16 07:33:17;;;;;;;30.95;10.80;;;;;;;9.66;99.89;102257.09;5013219;28;20026;-66
2023/04/16 07:35:44;;;;;;;23.02;10.30;;;;;;;9.65;99.70;102258.84;5013091;28;20022;-66
2023/04/16 07:38:09;;;;;;;23.92;10.25;;;;;;;9.71;99.83;102258.16;5012825;28;20030;-66
2023/04/16 07:40:35;;;;;;;25.02;9.88;;;;;;;9.78;99.40;102257.56;5013141;28;20502;-66
2023/04/16 07:43:01;;;;;;;25.33;10.25;;;;;;;9.82;99.42;102264.75;5012994;28;20026;-65
2023/04/16 07:45:26;;;;;;;23.77;11.20;;;;;;;9.85;99.33;102262.22;4995518;28;20030;-65
2023/04/16 07:47:51;;;;;;;25.15;11.02;;;;;;;9.87;99.15;102263.16;4995461;28;20038;-69
2023/04/16 07:50:18;;;;;;;25.10;10.43;;;;;;;9.86;99.11;102269.28;5013105;28;20034;-67
2023/04/16 07:52:44;;;;;;;24.60;11.10;;;;;;;9.90;99.31;102275.59;5012803;28;20484;-67
2023/04/16 07:55:09;;;;;;;26.42;10.80;;;;;;;9.84;99.21;102278.00;5013003;28;20030;-65
2023/04/16 07:57:35;;;;;;;25.45;10.90;;;;;;;9.88;99.05;102280.78;5016678;28;20053;-66
2023/04/16 08:00:06;;;;;;;26.63;11.55;;;;;;;9.90;99.32;102275.59;5019583;28;20033;-68
2023/04/16 08:02:32;;;;;;;25.35;10.73;;;;;;;9.90;99.20;102280.88;5019932;28;20076;-69
2023/04/16 08:04:57;;;;;;;24.00;11.07;;;;;;;9.92;98.94;102276.53;5020851;28;20035;-67
2023/04/16 08:07:23;;;;;;;33.58;10.90;;;;;;;9.93;98.68;102281.84;5020734;28;20030;-68
2023/04/16 08:09:50;;;;;;;29.58;11.55;;;;;;;9.92;98.45;102289.72;5020726;28;20387;-68
2023/04/16 08:12:16;;;;;;;22.58;10.60;;;;;;;9.97;98.33;102291.69;5019366;28;20049;-67
2023/04/16 08:14:42;;;;;;;28.80;11.40;;;;;;;9.99;98.46;102291.75;5019657;28;20038;-69
2023/04/16 08:17:08;;;;;;;25.77;11.32;;;;;;;10.02;98.09;102300.72;5020398;28;20041;-68
2023/04/16 08:19:33;;;;;;;24.25;10.43;;;;;;;10.03;98.17;102298.97;5002649;28;20029;-67
2023/04/16 08:21:58;;;;;;;24.75;10.25;;;;;;;10.04;97.90;102300.75;5019644;28;20030;-65
2023/04/16 08:24:24;;;;;;;26.50;11.38;;;;;;;10.05;97.85;102299.91;5020369;28;20100;-67
2023/04/16 08:26:49;;;;;;;26.80;11.88;;;;;;;10.04;98.52;102306.91;5020239;28;20113;-67
2023/04/16 08:29:15;;;;;;;23.35;11.43;;;;;;;10.14;97.89;102312.53;5019770;28;20415;-68
2023/04/16 08:31:40;;;;;;;29.17;11.45;;;;;;;10.17;97.96;102308.25;5020060;28;20475;-65
2023/04/16 08:34:06;;;;;;;30.42;12.15;;;;;;;10.26;97.63;102305.09;5019687;28;20065;-67
2023/04/16 08:36:31;;;;;;;27.63;11.43;;;;;;;10.28;97.15;102317.53;5019357;28;20367;-67
2023/04/16 08:38:57;;;;;;;25.05;11.65;;;;;;;10.30;97.07;102306.09;5019574;28;20030;-66
2023/04/16 08:41:23;;;;;;;24.35;10.98;;;;;;;10.26;96.86;102307.72;5020061;28;20034;-68
2023/04/16 08:43:52;;;;;;;25.92;11.60;;;;;;;10.27;97.08;102314.81;5019204;28;20084;-69
2023/04/16 08:46:23;;;;;;;28.75;11.73;;;;;;;10.30;97.08;102309.63;5019846;28;20025;-71
2023/04/16 08:48:53;;;;;;;26.42;12.10;;;;;;;10.27;96.55;102309.53;5016618;28;20042;-69
2023/04/16 08:51:21;;;;;;;24.67;11.25;;;;;;;10.24;97.01;102319.97;4998412;28;20034;-68
2023/04/16 08:53:58;;;;;;;24.33;11.35;;;;;;;10.31;97.41;102331.66;5016102;28;20053;-67
2023/04/16 08:56:25;;;;;;;25.65;11.32;;;;;;;10.36;97.33;102325.69;4998467;28;20080;-66
2023/04/16 08:58:53;;;;;;;26.20;11.48;;;;;;;10.38;97.03;102312.56;5016042;28;20022;-66
2023/04/16 09:01:20;;;;;;;27.02;11.75;;;;;;;10.44;96.14;102326.88;5015995;28;20072;-67
2023/04/16 09:03:48;;;;;;;24.98;11.52;;;;;;;10.43;96.70;102318.88;5016103;28;20072;-66
2023/04/16 09:06:15;;;;;;;21.55;11.07;;;;;;;10.46;96.50;102332.22;4999362;28;20030;-67
2023/04/16 09:08:43;;;;;;;25.70;10.98;;;;;;;10.52;96.27;102333.31;5016239;28;20033;-67
2023/04/16 09:11:08;;;;;;;23.48;12.05;;;;;;;10.54;96.24;102336.03;5015615;28;20045;-67
2023/04/16 09:13:36;;;;;;;22.27;11.88;;;;;;;10.58;96.23;102330.00;4998052;28;20117;-66
2023/04/16 09:16:02;;;;;;;27.38;11.80;;;;;;;10.60;95.24;102333.59;5015449;28;20069;-67
2023/04/16 09:18:29;;;;;;;25.75;11.90;;;;;;;10.63;95.17;102331.06;5015738;28;20066;-66
2023/04/16 09:20:55;;;;;;;29.80;12.57;;;;;;;10.65;94.93;102341.66;4998071;28;20034;-67
2023/04/16 09:23:21;;;;;;;27.33;12.68;;;;;;;10.61;94.88;102338.03;5015355;28;20116;-66
2023/04/16 09:25:46;;;;;;;26.00;12.10;;;;;;;10.61;95.49;102342.41;5015795;28;20114;-67
2023/04/16 09:28:12;;;;;;;32.65;12.90;;;;;;;10.65;95.34;102344.31;5015426;28;20041;-67
2023/04/16 09:30:37;;;;;;;28.17;12.70;;;;;;;10.69;95.82;102346.22;5015337;28;20034;-67
2023/04/16 09:33:22;;;;;;;28.83;12.52;;;;;;;10.66;95.26;102351.41;5015426;28;20033;-65
2023/04/16 09:35:49;;;;;;;23.92;12.65;;;;;;;10.67;95.41;102354.13;4997755;28;20543;-66
2023/04/16 09:38:15;;;;;;;23.88;13.02;;;;;;;10.67;95.75;102358.50;5015495;28;20046;-67
2023/04/16 09:40:40;;;;;;;26.27;12.40;;;;;;;10.74;95.40;102353.44;5015299;28;20124;-67
2023/04/16 09:43:13;;;;;;;25.70;12.15;;;;;;;10.76;95.39;102359.72;5015129;28;20463;-66
2023/04/16 09:45:52;;;;;;;26.92;13.00;;;;;;;10.80;94.70;102362.47;4997514;28;20038;-66
2023/04/16 09:48:32;;;;;;;29.65;12.75;;;;;;;10.87;95.06;102365.34;5015113;28;20494;-65
2023/04/16 09:50:58;;;;;;;27.60;12.68;;;;;;;10.92;94.80;102363.78;5015119;28;20022;-65
2023/04/16 09:53:25;;;;;;;27.60;12.77;;;;;;;10.91;94.05;102366.34;5014852;28;20038;-65
2023/04/16 09:55:54;;;;;;;25.77;13.00;;;;;;;10.91;94.42;102371.66;4998173;28;20108;-69
2023/04/16 09:58:20;;;;;;;25.92;12.95;;;;;;;10.96;94.20;102365.69;5017766;28;20018;-65
2023/04/16 10:00:45;;;;;;;32.38;13.23;;;;;;;11.01;94.00;102371.13;5017726;28;20088;-66
2023/04/16 10:03:11;;;;;;;27.98;13.40;;;;;;;11.04;93.93;102368.56;5016167;28;20032;-67
2023/04/16 10:05:36;;;;;;;24.42;13.82;;;;;;;11.10;94.18;102368.78;5017607;28;20065;-67
2023/04/16 10:08:02;;;;;;;28.10;13.70;;;;;;;11.07;94.07;102360.72;5017860;28;20037;-72
2023/04/16 10:10:28;;;;;;;24.38;12.75;;;;;;;11.07;93.68;102366.03;5016883;28;20022;-69
2023/04/16 10:12:57;;;;;;;26.17;12.68;;;;;;;11.14;93.73;102369.78;5017615;28;20556;-68
2023/04/16 10:15:22;;;;;;;29.52;12.52;;;;;;;11.14;93.83;102367.16;5017809;28;20037;-67
2023/04/16 10:17:49;;;;;;;24.45;13.07;;;;;;;11.06;93.38;102368.63;5017452;28;20026;-67
2023/04/16 10:20:16;;;;;;;29.55;13.02;;;;;;;11.02;93.86;102376.47;5016219;28;20030;-70
2023/04/16 10:22:42;;;;;;;25.33;13.43;;;;;;;10.99;93.69;102372.81;5018179;28;20114;-69
2023/04/16 10:25:09;;;;;;;23.27;13.45;;;;;;;11.01;94.36;102372.03;5000403;28;20060;-67
2023/04/16 10:27:36;;;;;;;24.75;13.02;;;;;;;11.00;93.61;102369.31;5016599;28;20101;-67
2023/04/16 10:30:02;;;;;;;27.95;14.00;;;;;;;11.01;93.25;102376.41;5017435;28;20475;-68
2023/04/16 10:32:29;;;;;;;23.13;13.48;;;;;;;11.05;93.65;102373.03;5017335;28;20065;-67
2023/04/16 10:34:54;;;;;;;22.95;13.25;;;;;;;11.06;93.66;102385.41;5016491;28;20038;-67
2023/04/16 10:37:30;;;;;;;27.75;13.45;;;;;;;11.07;93.55;102375.72;4999969;28;20025;-66
2023/04/16 10:39:55;;;;;;;28.13;14.00;;;;;;;11.11;93.38;102374.97;5015962;28;20041;-65
2023/04/16 10:42:20;;;;;;;23.20;12.77;;;;;;;11.15;93.38;102376.88;5017286;28;20025;-67
2023/04/16 10:44:46;;;;;;;21.85;11.32;;;;;;;11.20;92.75;102384.09;5016801;28;20037;-67
2023/04/16 10:47:12;;;;;;;23.00;12.65;;;;;;;11.23;93.24;102381.56;5017853;28;20105;-67
2023/04/16 10:49:38;;;;;;;24.23;13.55;;;;;;;11.30;92.47;102377.34;4999813;28;20096;-68
2023/04/16 10:52:17;;;;;;;23.95;12.68;;;;;;;11.28;91.99;102387.00;5017157;28;20392;-69
2023/04/16 10:54:43;;;;;;;24.60;12.95;;;;;;;11.35;92.52;102385.44;5017372;28;20030;-67
2023/04/16 10:57:13;;;;;;;21.70;12.50;;;;;;;11.36;91.98;102381.97;4999476;28;20439;-68
2023/04/16 10:59:41;;;;;;;22.83;13.07;;;;;;;11.32;91.63;102385.34;5017278;28;20467;-68
2023/04/16 11:02:17;;;;;;;26.90;12.82;;;;;;;11.34;91.92;102384.53;5016893;28;20491;-66
2023/04/16 11:04:44;;;;;;;22.15;12.15;;;;;;;11.31;91.38;102381.81;5017209;28;20088;-68
2023/04/16 11:07:10;;;;;;;25.42;13.05;;;;;;;11.39;91.83;102382.03;5017226;28;20427;-66
2023/04/16 11:09:58;;;;;;;20.83;11.77;;;;;;;11.38;91.78;102380.25;5016621;28;20025;-65
2023/04/16 11:12:28;;;;;;;22.40;12.63;;;;;;;11.32;91.41;102378.31;5013741;28;20479;-65
2023/04/16 11:14:59;;;;;;;24.67;13.20;;;;;;;11.28;91.62;102377.31;5013224;28;20029;-66
2023/04/16 11:17:28;;;;;;;20.75;12.60;;;;;;;11.28;92.01;102373.78;5013397;28;20033;-66